sensor_id;sensor_type;location;lat;lon;timestamp;temperature;humidity
59075;DHT22;44860;53.020;6.738;2023-05-07T00:01:26;13.30;99.90
59075;DHT22;44860;53.020;6.738;2023-05-07T00:03:51;13.30;99.90
59075;DHT22;44860;53.020;6.738;2023-05-07T00:06:17;13.30;99.90
59075;DHT22;44860;53.020;6.738;2023-05-07T00:08:43;13.30;99.90
59075;DHT22;44860;53.020;6.738;2023-05-07T00:11:08;13.30;99.90
59075;DHT22;44860;53.020;6.738;2023-05-07T00:13:34;13.20;99.90
59075;DHT22;44860;53.020;6.738;2023-05-07T00:16:04;13.20;99.90
59075;DHT22;44860;53.020;6.738;2023-05-07T00:18:30;13.20;99.90
59075;DHT22;44860;53.020;6.738;2023-05-07T00:20:56;13.20;99.90
59075;DHT22;44860;53.020;6.738;2023-05-07T00:23:22;13.20;99.90
59075;DHT22;44860;53.020;6.738;2023-05-07T00:25:48;13.20;99.90
59075;DHT22;44860;53.020;6.738;2023-05-07T00:28:14;13.20;99.90
59075;DHT22;44860;53.020;6.738;2023-05-07T00:30:39;13.20;99.90
59075;DHT22;44860;53.020;6.738;2023-05-07T00:33:05;13.10;99.90
59075;DHT22;44860;53.020;6.738;2023-05-07T00:35:31;13.10;99.90
59075;DHT22;44860;53.020;6.738;2023-05-07T00:37:57;13.10;99.90
59075;DHT22;44860;53.020;6.738;2023-05-07T00:40:22;13.10;99.90
59075;DHT22;44860;53.020;6.738;2023-05-07T00:42:48;13.10;99.90
59075;DHT22;44860;53.020;6.738;2023-05-07T00:45:15;13.00;99.90
59075;DHT22;44860;53.020;6.738;2023-05-07T00:47:41;13.00;99.90
59075;DHT22;44860;53.020;6.738;2023-05-07T00:50:08;13.00;99.90
59075;DHT22;44860;53.020;6.738;2023-05-07T00:52:35;13.00;99.90
59075;DHT22;44860;53.020;6.738;2023-05-07T00:55:05;13.00;99.90
59075;DHT22;44860;53.020;6.738;2023-05-07T00:57:35;13.00;99.90
59075;DHT22;44860;53.020;6.738;2023-05-07T01:00:03;13.00;99.90
59075;DHT22;44860;53.020;6.738;2023-05-07T01:02:29;12.90;99.90
59075;DHT22;44860;53.020;6.738;2023-05-07T01:04:55;12.90;99.90
59075;DHT22;44860;53.020;6.738;2023-05-07T01:07:22;12.90;99.90
59075;DHT22;44860;53.020;6.738;2023-05-07T01:09:48;12.90;99.90
59075;DHT22;44860;53.020;6.738;2023-05-07T01:12:14;12.80;99.90
59075;DHT22;44860;53.020;6.738;2023-05-07T01:14:43;12.80;99.90
59075;DHT22;44860;53.020;6.738;2023-05-07T01:17:09;12.80;99.90
59075;DHT22;44860;53.020;6.738;2023-05-07T01:19:35;12.80;99.90
59075;DHT22;44860;53.020;6.738;2023-05-07T01:22:03;12.70;99.90
59075;DHT22;44860;53.020;6.738;2023-05-07T01:24:32;12.70;99.90
59075;DHT22;44860;53.020;6.738;2023-05-07T01:26:58;12.70;99.90
59075;DHT22;44860;53.020;6.738;2023-05-07T01:29:24;12.70;99.90
59075;DHT22;44860;53.020;6.738;2023-05-07T01:31:50;12.70;99.90
59075;DHT22;44860;53.020;6.738;2023-05-07T01:34:17;12.70;99.90
59075;DHT22;44860;53.020;6.738;2023-05-07T01:36:44;12.60;99.90
59075;DHT22;44860;53.020;6.738;2023-05-07T01:39:10;12.60;99.90
59075;DHT22;44860;53.020;6.738;2023-05-07T01:41:37;12.60;99.90
59075;DHT22;44860;53.020;6.738;2023-05-07T01:44:03;12.60;99.90
59075;DHT22;44860;53.020;6.738;2023-05-07T01:46:31;12.60;99.90
59075;DHT22;44860;53.020;6.738;2023-05-07T01:48:58;12.60;99.90
59075;DHT22;44860;53.020;6.738;2023-05-07T01:51:23;12.50;99.90
59075;DHT22;44860;53.020;6.738;2023-05-07T01:53:49;12.50;99.90
59075;DHT22;44860;53.020;6.738;2023-05-07T01:56:19;12.40;99.90
59075;DHT22;44860;53.020;6.738;2023-05-07T01:58:45;12.40;99.90
59075;DHT22;44860;53.020;6.738;2023-05-07T02:01:13;12.40;99.90
59075;DHT22;44860;53.020;6.738;2023-05-07T02:03:39;12.40;99.90
59075;DHT22;44860;53.020;6.738;2023-05-07T02:06:04;12.40;99.90
59075;DHT22;44860;53.020;6.738;2023-05-07T02:08:30;12.40;99.90
59075;DHT22;44860;53.020;6.738;2023-05-07T02:10:56;12.30;99.90
59075;DHT22;44860;53.020;6.738;2023-05-07T02:13:22;12.30;99.90
59075;DHT22;44860;53.020;6.738;2023-05-07T02:15:49;12.30;99.90
59075;DHT22;44860;53.020;6.738;2023-05-07T02:18:16;12.30;99.90
59075;DHT22;44860;53.020;6.738;2023-05-07T02:20:42;12.20;99.90
59075;DHT22;44860;53.020;6.738;2023-05-07T02:23:08;12.20;99.90
59075;DHT22;44860;53.020;6.738;2023-05-07T02:25:34;12.20;99.90
59075;DHT22;44860;53.020;6.738;2023-05-07T02:27:59;12.20;99.90
59075;DHT22;44860;53.020;6.738;2023-05-07T02:30:25;12.20;99.90
59075;DHT22;44860;53.020;6.738;2023-05-07T02:32:51;12.10;99.90
59075;DHT22;44860;53.020;6.738;2023-05-07T02:35:17;12.10;99.90
59075;DHT22;44860;53.020;6.738;2023-05-07T02:37:43;12.10;99.90
59075;DHT22;44860;53.020;6.738;2023-05-07T02:40:09;12.10;99.90
59075;DHT22;44860;53.020;6.738;2023-05-07T02:42:35;12.10;99.90
59075;DHT22;44860;53.020;6.738;2023-05-07T02:45:01;12.10;99.90
59075;DHT22;44860;53.020;6.738;2023-05-07T02:47:26;12.10;99.90
59075;DHT22;44860;53.020;6.738;2023-05-07T02:49:54;12.10;99.90
59075;DHT22;44860;53.020;6.738;2023-05-07T02:52:20;12.00;99.90
59075;DHT22;44860;53.020;6.738;2023-05-07T02:54:46;12.00;99.90
59075;DHT22;44860;53.020;6.738;2023-05-07T02:57:12;12.00;99.90
59075;DHT22;44860;53.020;6.738;2023-05-07T02:59:37;12.00;99.90
59075;DHT22;44860;53.020;6.738;2023-05-07T03:02:03;12.00;99.90
59075;DHT22;44860;53.020;6.738;2023-05-07T03:04:29;12.00;99.90
59075;DHT22;44860;53.020;6.738;2023-05-07T03:06:54;12.00;99.90
59075;DHT22;44860;53.020;6.738;2023-05-07T03:09:20;12.00;99.90
59075;DHT22;44860;53.020;6.738;2023-05-07T03:11:46;11.90;99.90
59075;DHT22;44860;53.020;6.738;2023-05-07T03:14:11;11.90;99.90
59075;DHT22;44860;53.020;6.738;2023-05-07T03:16:37;11.90;99.90
59075;DHT22;44860;53.020;6.738;2023-05-07T03:19:03;11.90;99.90
59075;DHT22;44860;53.020;6.738;2023-05-07T03:21:29;11.90;99.90
59075;DHT22;44860;53.020;6.738;2023-05-07T03:23:56;11.90;99.90
59075;DHT22;44860;53.020;6.738;2023-05-07T03:26:21;11.90;99.90
59075;DHT22;44860;53.020;6.738;2023-05-07T03:28:47;11.90;99.90
59075;DHT22;44860;53.020;6.738;2023-05-07T03:31:13;11.90;99.90
59075;DHT22;44860;53.020;6.738;2023-05-07T03:33:56;11.90;99.90
59075;DHT22;44860;53.020;6.738;2023-05-07T03:36:22;11.80;99.90
59075;DHT22;44860;53.020;6.738;2023-05-07T03:38:49;11.80;99.90
59075;DHT22;44860;53.020;6.738;2023-05-07T03:41:15;11.80;99.90
59075;DHT22;44860;53.020;6.738;2023-05-07T03:43:41;11.80;99.90
59075;DHT22;44860;53.020;6.738;2023-05-07T03:46:06;11.80;99.90
59075;DHT22;44860;53.020;6.738;2023-05-07T03:48:32;11.80;99.90
59075;DHT22;44860;53.020;6.738;2023-05-07T03:50:58;11.80;99.90
59075;DHT22;44860;53.020;6.738;2023-05-07T03:53:24;11.80;99.90
59075;DHT22;44860;53.020;6.738;2023-05-07T03:55:50;11.70;99.90
59075;DHT22;44860;53.020;6.738;2023-05-07T03:58:15;11.70;99.90
59075;DHT22;44860;53.020;6.738;2023-05-07T04:00:41;11.70;99.90
59075;DHT22;44860;53.020;6.738;2023-05-07T04:03:07;11.70;99.90
59075;DHT22;44860;53.020;6.738;2023-05-07T04:05:33;11.70;99.90
59075;DHT22;44860;53.020;6.738;2023-05-07T04:07:59;11.70;99.90
59075;DHT22;44860;53.020;6.738;2023-05-07T04:10:25;11.70;99.90
59075;DHT22;44860;53.020;6.738;2023-05-07T04:12:51;11.70;99.90
59075;DHT22;44860;53.020;6.738;2023-05-07T04:15:17;11.60;99.90
59075;DHT22;44860;53.020;6.738;2023-05-07T04:17:43;11.60;99.90
59075;DHT22;44860;53.020;6.738;2023-05-07T04:20:15;11.60;99.90
59075;DHT22;44860;53.020;6.738;2023-05-07T04:22:44;11.60;99.90
59075;DHT22;44860;53.020;6.738;2023-05-07T04:25:10;11.60;99.90
59075;DHT22;44860;53.020;6.738;2023-05-07T04:27:36;11.60;99.90
59075;DHT22;44860;53.020;6.738;2023-05-07T04:30:05;11.60;99.90
59075;DHT22;44860;53.020;6.738;2023-05-07T04:32:31;11.60;99.90
59075;DHT22;44860;53.020;6.738;2023-05-07T04:34:57;11.60;99.90
59075;DHT22;44860;53.020;6.738;2023-05-07T04:37:23;11.50;99.90
59075;DHT22;44860;53.020;6.738;2023-05-07T04:39:48;11.50;99.90
59075;DHT22;44860;53.020;6.738;2023-05-07T04:42:15;11.50;99.90
59075;DHT22;44860;53.020;6.738;2023-05-07T04:44:41;11.50;99.90
59075;DHT22;44860;53.020;6.738;2023-05-07T04:47:07;11.50;99.90
59075;DHT22;44860;53.020;6.738;2023-05-07T04:49:33;11.50;99.90
59075;DHT22;44860;53.020;6.738;2023-05-07T04:51:58;11.50;99.90
59075;DHT22;44860;53.020;6.738;2023-05-07T04:54:24;11.50;99.90
59075;DHT22;44860;53.020;6.738;2023-05-07T04:56:50;11.50;99.90
59075;DHT22;44860;53.020;6.738;2023-05-07T04:59:16;11.50;99.90
59075;DHT22;44860;53.020;6.738;2023-05-07T05:01:41;11.50;99.90
59075;DHT22;44860;53.020;6.738;2023-05-07T05:04:07;11.50;99.90
59075;DHT22;44860;53.020;6.738;2023-05-07T05:06:33;11.40;99.90
59075;DHT22;44860;53.020;6.738;2023-05-07T05:08:58;11.50;99.90
59075;DHT22;44860;53.020;6.738;2023-05-07T05:11:24;11.50;99.90
59075;DHT22;44860;53.020;6.738;2023-05-07T05:13:50;11.50;99.90
59075;DHT22;44860;53.020;6.738;2023-05-07T05:16:16;11.50;99.90
59075;DHT22;44860;53.020;6.738;2023-05-07T05:18:41;11.50;99.90
59075;DHT22;44860;53.020;6.738;2023-05-07T05:21:07;11.50;99.90
59075;DHT22;44860;53.020;6.738;2023-05-07T05:23:33;11.50;99.90
59075;DHT22;44860;53.020;6.738;2023-05-07T05:25:59;11.50;99.90
59075;DHT22;44860;53.020;6.738;2023-05-07T05:28:24;11.50;99.90
59075;DHT22;44860;53.020;6.738;2023-05-07T05:30:50;11.50;99.90
59075;DHT22;44860;53.020;6.738;2023-05-07T05:33:16;11.50;99.90
59075;DHT22;44860;53.020;6.738;2023-05-07T05:35:42;11.50;99.90
59075;DHT22;44860;53.020;6.738;2023-05-07T05:38:07;11.40;99.90
59075;DHT22;44860;53.020;6.738;2023-05-07T05:40:33;11.50;99.90
59075;DHT22;44860;53.020;6.738;2023-05-07T05:42:59;11.50;99.90
59075;DHT22;44860;53.020;6.738;2023-05-07T05:45:25;11.40;99.90
59075;DHT22;44860;53.020;6.738;2023-05-07T05:47:51;11.50;99.90
59075;DHT22;44860;53.020;6.738;2023-05-07T05:50:17;11.50;99.90
59075;DHT22;44860;53.020;6.738;2023-05-07T05:52:42;11.50;99.90
59075;DHT22;44860;53.020;6.738;2023-05-07T05:55:08;11.50;99.90
59075;DHT22;44860;53.020;6.738;2023-05-07T05:57:34;11.50;99.90
59075;DHT22;44860;53.020;6.738;2023-05-07T06:00:01;11.50;99.90
59075;DHT22;44860;53.020;6.738;2023-05-07T06:02:26;11.50;99.90
59075;DHT22;44860;53.020;6.738;2023-05-07T06:04:52;11.50;99.90
59075;DHT22;44860;53.020;6.738;2023-05-07T06:07:18;11.50;99.90
59075;DHT22;44860;53.020;6.738;2023-05-07T06:09:43;11.50;99.90
59075;DHT22;44860;53.020;6.738;2023-05-07T06:12:09;11.50;99.90
59075;DHT22;44860;53.020;6.738;2023-05-07T06:14:35;11.50;99.90
59075;DHT22;44860;53.020;6.738;2023-05-07T06:17:00;11.60;99.90
59075;DHT22;44860;53.020;6.738;2023-05-07T06:19:26;11.60;99.90
59075;DHT22;44860;53.020;6.738;2023-05-07T06:21:53;11.60;99.90
59075;DHT22;44860;53.020;6.738;2023-05-07T06:24:19;11.60;99.90
59075;DHT22;44860;53.020;6.738;2023-05-07T06:26:45;11.60;99.90
59075;DHT22;44860;53.020;6.738;2023-05-07T06:29:10;11.60;99.90
59075;DHT22;44860;53.020;6.738;2023-05-07T06:31:36;11.60;99.90
59075;DHT22;44860;53.020;6.738;2023-05-07T06:34:02;11.60;99.90
59075;DHT22;44860;53.020;6.738;2023-05-07T06:36:28;11.60;99.90
59075;DHT22;44860;53.020;6.738;2023-05-07T06:38:53;11.60;99.90
59075;DHT22;44860;53.020;6.738;2023-05-07T06:41:20;11.60;99.90
59075;DHT22;44860;53.020;6.738;2023-05-07T06:43:46;11.60;99.90
59075;DHT22;44860;53.020;6.738;2023-05-07T06:46:11;11.60;99.90
59075;DHT22;44860;53.020;6.738;2023-05-07T06:48:37;11.60;99.90
59075;DHT22;44860;53.020;6.738;2023-05-07T06:51:03;11.60;99.90
59075;DHT22;44860;53.020;6.738;2023-05-07T06:53:28;11.70;99.90
59075;DHT22;44860;53.020;6.738;2023-05-07T06:55:56;11.70;99.90
59075;DHT22;44860;53.020;6.738;2023-05-07T06:58:22;11.70;99.90
59075;DHT22;44860;53.020;6.738;2023-05-07T07:00:47;11.70;99.90
59075;DHT22;44860;53.020;6.738;2023-05-07T07:03:13;11.70;99.90
59075;DHT22;44860;53.020;6.738;2023-05-07T07:05:41;11.70;99.90
59075;DHT22;44860;53.020;6.738;2023-05-07T07:08:10;11.70;99.90
59075;DHT22;44860;53.020;6.738;2023-05-07T07:10:35;11.70;99.90
59075;DHT22;44860;53.020;6.738;2023-05-07T07:13:01;11.70;99.90
59075;DHT22;44860;53.020;6.738;2023-05-07T07:15:27;11.80;99.90
59075;DHT22;44860;53.020;6.738;2023-05-07T07:17:52;11.80;99.90
59075;DHT22;44860;53.020;6.738;2023-05-07T07:20:18;11.80;99.90
59075;DHT22;44860;53.020;6.738;2023-05-07T07:22:44;11.80;99.90
59075;DHT22;44860;53.020;6.738;2023-05-07T07:25:09;11.80;99.90
59075;DHT22;44860;53.020;6.738;2023-05-07T07:27:36;11.80;99.90
59075;DHT22;44860;53.020;6.738;2023-05-07T07:30:02;11.90;99.90
59075;DHT22;44860;53.020;6.738;2023-05-07T07:32:28;11.90;99.90
59075;DHT22;44860;53.020;6.738;2023-05-07T07:34:53;11.90;99.90
59075;DHT22;44860;53.020;6.738;2023-05-07T07:37:19;11.90;99.90
59075;DHT22;44860;53.020;6.738;2023-05-07T07:39:45;12.00;99.90
59075;DHT22;44860;53.020;6.738;2023-05-07T07:42:11;11.90;99.90
59075;DHT22;44860;53.020;6.738;2023-05-07T07:44:36;12.00;99.90
59075;DHT22;44860;53.020;6.738;2023-05-07T07:47:02;12.00;99.90
59075;DHT22;44860;53.020;6.738;2023-05-07T07:49:28;12.00;99.90
59075;DHT22;44860;53.020;6.738;2023-05-07T07:51:53;12.00;99.90
59075;DHT22;44860;53.020;6.738;2023-05-07T07:54:19;12.00;99.90
59075;DHT22;44860;53.020;6.738;2023-05-07T07:56:44;12.00;99.90
59075;DHT22;44860;53.020;6.738;2023-05-07T07:59:10;12.10;99.90
59075;DHT22;44860;53.020;6.738;2023-05-07T08:01:36;12.00;99.90
59075;DHT22;44860;53.020;6.738;2023-05-07T08:04:01;12.10;99.90
59075;DHT22;44860;53.020;6.738;2023-05-07T08:06:28;12.10;99.90
59075;DHT22;44860;53.020;6.738;2023-05-07T08:08:54;12.10;99.90
59075;DHT22;44860;53.020;6.738;2023-05-07T08:11:20;12.10;99.90
59075;DHT22;44860;53.020;6.738;2023-05-07T08:13:47;12.20;99.90
59075;DHT22;44860;53.020;6.738;2023-05-07T08:16:13;12.20;99.90
59075;DHT22;44860;53.020;6.738;2023-05-07T08:18:39;12.20;99.90
59075;DHT22;44860;53.020;6.738;2023-05-07T08:21:04;12.20;99.90
59075;DHT22;44860;53.020;6.738;2023-05-07T08:23:30;12.20;99.90
59075;DHT22;44860;53.020;6.738;2023-05-07T08:25:56;12.30;99.90
59075;DHT22;44860;53.020;6.738;2023-05-07T08:28:21;12.30;99.90
59075;DHT22;44860;53.020;6.738;2023-05-07T08:30:47;12.30;99.90
59075;DHT22;44860;53.020;6.738;2023-05-07T08:33:13;12.40;99.90
59075;DHT22;44860;53.020;6.738;2023-05-07T08:35:39;12.40;99.90
59075;DHT22;44860;53.020;6.738;2023-05-07T08:38:04;12.40;99.90
59075;DHT22;44860;53.020;6.738;2023-05-07T08:40:37;12.40;99.90
59075;DHT22;44860;53.020;6.738;2023-05-07T08:43:05;12.40;99.90
59075;DHT22;44860;53.020;6.738;2023-05-07T08:45:33;12.50;99.90
59075;DHT22;44860;53.020;6.738;2023-05-07T08:48:01;12.50;99.90
59075;DHT22;44860;53.020;6.738;2023-05-07T08:50:27;12.60;99.90
59075;DHT22;44860;53.020;6.738;2023-05-07T08:52:53;12.70;99.90
59075;DHT22;44860;53.020;6.738;2023-05-07T08:55:20;12.80;99.90
59075;DHT22;44860;53.020;6.738;2023-05-07T08:57:45;12.80;99.90
59075;DHT22;44860;53.020;6.738;2023-05-07T09:00:12;12.90;99.90
59075;DHT22;44860;53.020;6.738;2023-05-07T09:02:38;13.00;99.90
59075;DHT22;44860;53.020;6.738;2023-05-07T09:05:04;13.10;99.90
59075;DHT22;44860;53.020;6.738;2023-05-07T09:07:30;13.10;99.90
59075;DHT22;44860;53.020;6.738;2023-05-07T09:09:56;13.20;99.90
59075;DHT22;44860;53.020;6.738;2023-05-07T09:12:22;13.20;99.90
59075;DHT22;44860;53.020;6.738;2023-05-07T09:14:49;13.30;99.90
59075;DHT22;44860;53.020;6.738;2023-05-07T09:17:18;13.30;99.90
59075;DHT22;44860;53.020;6.738;2023-05-07T09:19:44;13.40;99.90
59075;DHT22;44860;53.020;6.738;2023-05-07T09:22:13;13.40;99.90
59075;DHT22;44860;53.020;6.738;2023-05-07T09:24:39;13.50;99.90
59075;DHT22;44860;53.020;6.738;2023-05-07T09:27:05;13.50;99.90
59075;DHT22;44860;53.020;6.738;2023-05-07T09:29:31;13.60;99.90
59075;DHT22;44860;53.020;6.738;2023-05-07T09:32:07;13.60;99.90
59075;DHT22;44860;53.020;6.738;2023-05-07T09:34:34;13.60;99.90
59075;DHT22;44860;53.020;6.738;2023-05-07T09:37:04;13.70;99.90
59075;DHT22;44860;53.020;6.738;2023-05-07T09:39:47;13.70;99.90
59075;DHT22;44860;53.020;6.738;2023-05-07T09:42:13;13.80;99.90
59075;DHT22;44860;53.020;6.738;2023-05-07T09:44:43;13.80;99.90
59075;DHT22;44860;53.020;6.738;2023-05-07T09:47:10;13.90;99.90
59075;DHT22;44860;53.020;6.738;2023-05-07T09:49:39;13.90;99.90
59075;DHT22;44860;53.020;6.738;2023-05-07T09:52:06;14.00;99.90
59075;DHT22;44860;53.020;6.738;2023-05-07T09:54:35;14.10;99.90
59075;DHT22;44860;53.020;6.738;2023-05-07T09:57:04;14.10;99.90
59075;DHT22;44860;53.020;6.738;2023-05-07T09:59:31;14.20;99.90
59075;DHT22;44860;53.020;6.738;2023-05-07T10:01:58;14.20;99.90
59075;DHT22;44860;53.020;6.738;2023-05-07T10:04:25;14.30;99.90
59075;DHT22;44860;53.020;6.738;2023-05-07T10:06:52;14.30;99.90
59075;DHT22;44860;53.020;6.738;2023-05-07T10:09:19;14.40;99.90
59075;DHT22;44860;53.020;6.738;2023-05-07T10:11:46;14.50;99.90
59075;DHT22;44860;53.020;6.738;2023-05-07T10:14:14;14.50;99.90
59075;DHT22;44860;53.020;6.738;2023-05-07T10:16:41;14.60;99.90
59075;DHT22;44860;53.020;6.738;2023-05-07T10:19:08;14.70;99.90
59075;DHT22;44860;53.020;6.738;2023-05-07T10:21:36;14.70;99.90
59075;DHT22;44860;53.020;6.738;2023-05-07T10:24:09;14.70;99.90
59075;DHT22;44860;53.020;6.738;2023-05-07T10:26:41;14.80;99.90
59075;DHT22;44860;53.020;6.738;2023-05-07T10:29:14;14.80;99.90
59075;DHT22;44860;53.020;6.738;2023-05-07T10:31:58;14.90;99.90
59075;DHT22;44860;53.020;6.738;2023-05-07T10:34:35;15.00;99.90
59075;DHT22;44860;53.020;6.738;2023-05-07T10:37:02;15.10;99.90
59075;DHT22;44860;53.020;6.738;2023-05-07T10:39:28;15.20;99.90
59075;DHT22;44860;53.020;6.738;2023-05-07T10:41:55;15.30;99.90
59075;DHT22;44860;53.020;6.738;2023-05-07T10:44:28;15.40;99.90
59075;DHT22;44860;53.020;6.738;2023-05-07T10:47:06;15.40;99.90
59075;DHT22;44860;53.020;6.738;2023-05-07T10:49:35;15.50;99.90
59075;DHT22;44860;53.020;6.738;2023-05-07T10:52:15;15.50;99.90
59075;DHT22;44860;53.020;6.738;2023-05-07T10:54:42;15.60;99.90
59075;DHT22;44860;53.020;6.738;2023-05-07T10:57:33;15.70;99.90
59075;DHT22;44860;53.020;6.738;2023-05-07T11:00:03;15.80;99.90
59075;DHT22;44860;53.020;6.738;2023-05-07T11:05:28;16.00;99.90
59075;DHT22;44860;53.020;6.738;2023-05-07T11:07:55;16.10;99.90
59075;DHT22;44860;53.020;6.738;2023-05-07T11:10:22;16.20;99.90
59075;DHT22;44860;53.020;6.738;2023-05-07T11:12:49;16.30;99.90
59075;DHT22;44860;53.020;6.738;2023-05-07T11:15:32;16.40;99.90
59075;DHT22;44860;53.020;6.738;2023-05-07T11:17:59;16.40;99.90
59075;DHT22;44860;53.020;6.738;2023-05-07T11:26:05;16.70;99.90
59075;DHT22;44860;53.020;6.738;2023-05-07T11:28:37;16.70;99.90
59075;DHT22;44860;53.020;6.738;2023-05-07T11:31:03;16.80;99.90
59075;DHT22;44860;53.020;6.738;2023-05-07T11:33:30;16.90;99.90
59075;DHT22;44860;53.020;6.738;2023-05-07T11:35:56;17.00;99.90
59075;DHT22;44860;53.020;6.738;2023-05-07T11:38:22;17.10;99.90
59075;DHT22;44860;53.020;6.738;2023-05-07T11:43:17;17.10;99.90
59075;DHT22;44860;53.020;6.738;2023-05-07T11:45:43;17.20;99.90
59075;DHT22;44860;53.020;6.738;2023-05-07T11:48:09;17.20;99.90
59075;DHT22;44860;53.020;6.738;2023-05-07T11:50:35;17.30;99.90
59075;DHT22;44860;53.020;6.738;2023-05-07T11:53:07;17.40;99.90
59075;DHT22;44860;53.020;6.738;2023-05-07T11:55:33;17.50;99.90
59075;DHT22;44860;53.020;6.738;2023-05-07T11:57:59;17.50;99.90
59075;DHT22;44860;53.020;6.738;2023-05-07T12:00:26;17.50;99.90
59075;DHT22;44860;53.020;6.738;2023-05-07T12:02:51;17.50;99.90
59075;DHT22;44860;53.020;6.738;2023-05-07T12:05:17;17.50;99.90
59075;DHT22;44860;53.020;6.738;2023-05-07T12:07:43;17.50;99.90
59075;DHT22;44860;53.020;6.738;2023-05-07T12:10:11;17.50;99.90
59075;DHT22;44860;53.020;6.738;2023-05-07T12:12:46;17.60;99.90
59075;DHT22;44860;53.020;6.738;2023-05-07T12:15:16;17.60;99.90
59075;DHT22;44860;53.020;6.738;2023-05-07T12:17:42;17.70;99.90
59075;DHT22;44860;53.020;6.738;2023-05-07T12:20:09;17.70;99.90
59075;DHT22;44860;53.020;6.738;2023-05-07T12:22:36;17.80;99.90
59075;DHT22;44860;53.020;6.738;2023-05-07T12:25:02;17.90;99.90
59075;DHT22;44860;53.020;6.738;2023-05-07T12:27:28;17.90;99.90
59075;DHT22;44860;53.020;6.738;2023-05-07T12:29:54;18.00;99.90
59075;DHT22;44860;53.020;6.738;2023-05-07T12:32:21;18.00;99.90
59075;DHT22;44860;53.020;6.738;2023-05-07T12:34:50;18.10;99.90
59075;DHT22;44860;53.020;6.738;2023-05-07T12:37:16;18.10;99.90
59075;DHT22;44860;53.020;6.738;2023-05-07T12:39:49;18.10;99.90
59075;DHT22;44860;53.020;6.738;2023-05-07T12:42:21;18.20;99.90
59075;DHT22;44860;53.020;6.738;2023-05-07T12:44:51;18.20;99.90
59075;DHT22;44860;53.020;6.738;2023-05-07T12:47:17;18.30;99.90
59075;DHT22;44860;53.020;6.738;2023-05-07T12:49:43;18.40;99.90
59075;DHT22;44860;53.020;6.738;2023-05-07T12:52:11;18.50;99.90
59075;DHT22;44860;53.020;6.738;2023-05-07T12:54:38;18.50;99.90
59075;DHT22;44860;53.020;6.738;2023-05-07T12:57:08;18.60;99.90
59075;DHT22;44860;53.020;6.738;2023-05-07T12:59:37;18.60;99.90
59075;DHT22;44860;53.020;6.738;2023-05-07T13:02:03;18.70;99.90
59075;DHT22;44860;53.020;6.738;2023-05-07T13:04:29;18.70;99.90
59075;DHT22;44860;53.020;6.738;2023-05-07T13:06:55;18.80;99.90
59075;DHT22;44860;53.020;6.738;2023-05-07T13:09:20;18.80;99.90
59075;DHT22;44860;53.020;6.738;2023-05-07T13:11:46;18.90;99.90
59075;DHT22;44860;53.020;6.738;2023-05-07T13:14:12;19.00;99.90
59075;DHT22;44860;53.020;6.738;2023-05-07T13:16:37;19.00;99.90
59075;DHT22;44860;53.020;6.738;2023-05-07T13:19:03;19.10;99.90
59075;DHT22;44860;53.020;6.738;2023-05-07T13:21:29;19.10;99.90
59075;DHT22;44860;53.020;6.738;2023-05-07T13:23:57;19.30;99.90
59075;DHT22;44860;53.020;6.738;2023-05-07T13:26:23;19.30;99.90
59075;DHT22;44860;53.020;6.738;2023-05-07T13:28:49;19.30;99.90
59075;DHT22;44860;53.020;6.738;2023-05-07T13:31:17;19.30;99.90
59075;DHT22;44860;53.020;6.738;2023-05-07T13:33:43;19.30;99.90
59075;DHT22;44860;53.020;6.738;2023-05-07T13:36:08;19.30;99.90
59075;DHT22;44860;53.020;6.738;2023-05-07T13:38:34;19.40;99.90
59075;DHT22;44860;53.020;6.738;2023-05-07T13:41:01;19.40;99.90
59075;DHT22;44860;53.020;6.738;2023-05-07T13:43:26;19.40;99.90
59075;DHT22;44860;53.020;6.738;2023-05-07T13:45:52;19.50;99.90
59075;DHT22;44860;53.020;6.738;2023-05-07T13:48:17;19.50;99.90
59075;DHT22;44860;53.020;6.738;2023-05-07T13:50:43;19.50;99.90
59075;DHT22;44860;53.020;6.738;2023-05-07T13:53:09;19.50;99.90
59075;DHT22;44860;53.020;6.738;2023-05-07T13:55:34;19.50;99.90
59075;DHT22;44860;53.020;6.738;2023-05-07T13:58:01;19.50;99.90
59075;DHT22;44860;53.020;6.738;2023-05-07T14:00:28;19.50;99.90
59075;DHT22;44860;53.020;6.738;2023-05-07T14:02:55;19.40;99.90
59075;DHT22;44860;53.020;6.738;2023-05-07T14:05:21;19.40;99.90
59075;DHT22;44860;53.020;6.738;2023-05-07T14:07:50;19.40;99.90
59075;DHT22;44860;53.020;6.738;2023-05-07T14:10:17;19.40;99.90
59075;DHT22;44860;53.020;6.738;2023-05-07T14:12:44;19.40;99.90
59075;DHT22;44860;53.020;6.738;2023-05-07T14:15:10;19.40;99.90
59075;DHT22;44860;53.020;6.738;2023-05-07T14:17:36;19.40;99.90
59075;DHT22;44860;53.020;6.738;2023-05-07T14:20:02;19.40;99.90
59075;DHT22;44860;53.020;6.738;2023-05-07T14:22:28;19.40;99.90
59075;DHT22;44860;53.020;6.738;2023-05-07T14:24:54;19.40;99.90
59075;DHT22;44860;53.020;6.738;2023-05-07T14:27:19;19.40;99.90
59075;DHT22;44860;53.020;6.738;2023-05-07T14:29:45;19.40;99.90
59075;DHT22;44860;53.020;6.738;2023-05-07T14:32:16;19.40;99.90
59075;DHT22;44860;53.020;6.738;2023-05-07T14:34:43;19.50;99.90
59075;DHT22;44860;53.020;6.738;2023-05-07T14:37:08;19.50;99.90
59075;DHT22;44860;53.020;6.738;2023-05-07T14:39:34;19.50;99.90
59075;DHT22;44860;53.020;6.738;2023-05-07T14:42:00;19.50;99.90
59075;DHT22;44860;53.020;6.738;2023-05-07T14:44:25;19.50;99.90
59075;DHT22;44860;53.020;6.738;2023-05-07T14:46:51;19.40;99.90
59075;DHT22;44860;53.020;6.738;2023-05-07T14:49:16;19.40;99.90
59075;DHT22;44860;53.020;6.738;2023-05-07T14:51:46;19.40;99.90
59075;DHT22;44860;53.020;6.738;2023-05-07T14:54:15;19.50;99.90
59075;DHT22;44860;53.020;6.738;2023-05-07T14:56:43;19.50;99.90
59075;DHT22;44860;53.020;6.738;2023-05-07T14:59:09;19.60;99.90
59075;DHT22;44860;53.020;6.738;2023-05-07T15:01:36;19.60;99.90
59075;DHT22;44860;53.020;6.738;2023-05-07T15:04:05;19.60;99.90
59075;DHT22;44860;53.020;6.738;2023-05-07T15:06:31;19.50;99.90
59075;DHT22;44860;53.020;6.738;2023-05-07T15:08:57;19.50;99.90
59075;DHT22;44860;53.020;6.738;2023-05-07T15:11:23;19.50;99.90
59075;DHT22;44860;53.020;6.738;2023-05-07T15:13:49;19.40;99.90
59075;DHT22;44860;53.020;6.738;2023-05-07T15:16:15;19.40;99.90
59075;DHT22;44860;53.020;6.738;2023-05-07T15:18:41;19.30;99.90
59075;DHT22;44860;53.020;6.738;2023-05-07T15:21:09;19.20;99.90
59075;DHT22;44860;53.020;6.738;2023-05-07T15:23:35;19.30;99.90
59075;DHT22;44860;53.020;6.738;2023-05-07T15:26:01;19.30;99.90
59075;DHT22;44860;53.020;6.738;2023-05-07T15:28:29;19.20;99.90
59075;DHT22;44860;53.020;6.738;2023-05-07T15:30:55;19.20;99.90
59075;DHT22;44860;53.020;6.738;2023-05-07T15:33:21;19.20;99.90
59075;DHT22;44860;53.020;6.738;2023-05-07T15:35:46;19.10;99.90
59075;DHT22;44860;53.020;6.738;2023-05-07T15:38:12;19.10;99.90